createdAt,value
2022-11-01T00:02:12.231Z,96562.44
2022-11-01T00:04:43.038Z,96562.28
2022-11-01T00:07:11.287Z,96560.91
2022-11-01T00:09:39.559Z,96554.72
2022-11-01T00:12:08.110Z,96552.28
2022-11-01T00:14:37.613Z,96553.34
2022-11-01T00:17:05.873Z,96546.25
2022-11-01T00:19:34.164Z,96538.97
2022-11-01T00:22:02.312Z,96541.69
2022-11-01T00:24:31.500Z,96533.72
2022-11-01T00:27:00.797Z,96541.53
2022-11-01T00:29:29.062Z,96535.09
2022-11-01T00:31:58.610Z,96542.00
2022-11-01T00:34:26.836Z,96551.56
2022-11-01T00:36:54.976Z,96550.44
2022-11-01T00:39:27.476Z,96546.50
2022-11-01T00:41:59.853Z,96551.03
2022-11-01T00:44:28.006Z,96546.09
2022-11-01T00:46:57.802Z,96556.09
2022-11-01T00:49:26.155Z,96546.22
2022-11-01T00:51:54.414Z,96552.50
2022-11-01T00:54:22.582Z,96553.28
2022-11-01T00:56:50.778Z,96554.56
2022-11-01T00:59:19.153Z,96553.69
2022-11-01T01:01:47.768Z,96552.16
2022-11-01T01:04:17.473Z,96558.75
2022-11-01T01:06:45.822Z,96553.75
2022-11-01T01:09:14.009Z,96551.19
2022-11-01T01:11:42.212Z,96554.41
2022-11-01T01:14:11.003Z,96544.34
2022-11-01T01:16:39.556Z,96550.84
2022-11-01T01:19:07.896Z,96549.22
2022-11-01T01:21:37.502Z,96546.03
2022-11-01T01:24:05.906Z,96541.19
2022-11-01T01:26:34.001Z,96544.84
2022-11-01T01:29:02.187Z,96547.97
2022-11-01T01:31:30.393Z,96546.78
2022-11-01T01:33:58.909Z,96536.06
2022-11-01T01:36:27.026Z,96537.59
2022-11-01T01:38:56.496Z,96537.59
2022-11-01T01:41:42.379Z,96532.53
2022-11-01T01:45:16.058Z,96533.28
2022-11-01T01:47:47.909Z,96535.28
2022-11-01T01:50:29.292Z,96531.34
2022-11-01T01:53:04.768Z,96524.66
2022-11-01T01:55:42.934Z,96531.28
2022-11-01T01:58:13.938Z,96534.97
2022-11-01T02:00:44.656Z,96540.53
2022-11-01T02:03:13.947Z,96550.91
2022-11-01T02:05:49.679Z,96540.00
2022-11-01T02:08:26.788Z,96549.03
2022-11-01T02:11:00.578Z,96544.28
2022-11-01T02:13:30.217Z,96548.31
2022-11-01T02:16:23.592Z,96544.84
2022-11-01T02:19:09.736Z,96532.88
2022-11-01T02:21:52.730Z,96546.63
2022-11-01T02:25:10.732Z,96546.53
2022-11-01T02:28:02.035Z,96528.94
2022-11-01T02:30:43.072Z,96520.25
2022-11-01T02:33:22.638Z,96525.94
2022-11-01T02:36:01.059Z,96531.25
2022-11-01T02:38:36.790Z,96522.50
2022-11-01T02:41:12.984Z,96508.75
2022-11-01T02:43:47.923Z,96502.06
2022-11-01T02:46:35.281Z,96498.94
2022-11-01T02:49:05.449Z,96567.94
2022-11-01T02:51:35.750Z,96560.13
2022-11-01T02:54:07.456Z,96547.00
2022-11-01T02:56:40.253Z,96545.66
2022-11-01T02:59:15.623Z,96528.84
2022-11-01T03:01:45.899Z,96544.28
2022-11-01T03:04:15.647Z,96538.91
2022-11-01T03:06:51.039Z,96539.72
2022-11-01T03:09:19.745Z,96549.03
2022-11-01T03:11:55.825Z,96551.44
2022-11-01T03:14:31.442Z,96534.06
2022-11-01T03:17:03.984Z,96547.75
2022-11-01T03:19:44.768Z,96559.00
2022-11-01T03:22:18.118Z,96557.53
2022-11-01T03:24:51.468Z,96550.72
2022-11-01T03:27:28.009Z,96563.56
2022-11-01T03:30:02.686Z,96564.44
2022-11-01T03:32:39.180Z,96574.00
2022-11-01T03:35:14.809Z,96569.00
2022-11-01T03:37:47.174Z,96577.78
2022-11-01T03:40:18.260Z,96584.47
2022-11-01T03:42:49.723Z,96589.78
2022-11-01T03:45:25.514Z,96585.28
2022-11-01T03:47:53.919Z,96591.31
2022-11-01T03:50:26.698Z,96595.91
2022-11-01T03:52:55.435Z,96594.31
2022-11-01T03:55:24.824Z,96600.00
2022-11-01T03:57:55.029Z,96611.84
2022-11-01T04:00:26.204Z,96610.72
2022-11-01T04:02:56.230Z,96615.69
2022-11-01T04:05:27.562Z,96605.94
2022-11-01T04:07:56.520Z,96605.94
2022-11-01T04:10:27.099Z,96603.88
2022-11-01T04:12:55.533Z,96604.75
2022-11-01T04:15:43.357Z,96611.72
2022-11-01T04:18:34.318Z,96621.56
2022-11-01T04:21:06.954Z,96629.25
2022-11-01T04:23:36.299Z,96636.44
2022-11-01T04:26:06.556Z,96633.03
2022-11-01T04:28:34.915Z,96636.75
2022-11-01T04:31:03.387Z,96641.28
2022-11-01T04:33:31.633Z,96640.78
2022-11-01T04:36:04.649Z,96635.44
2022-11-01T04:38:34.178Z,96639.81
2022-11-01T04:41:02.377Z,96648.25
2022-11-01T04:43:31.100Z,96650.91
2022-11-01T04:45:59.705Z,96662.13
2022-11-01T04:48:28.300Z,96663.38
2022-11-01T04:50:56.449Z,96668.97
2022-11-01T04:53:24.647Z,96665.69
2022-11-01T04:55:54.222Z,96674.59
2022-11-01T04:58:22.352Z,96676.13
2022-11-01T05:00:50.842Z,96664.50
2022-11-01T05:03:23.384Z,96661.91
2022-11-01T05:05:52.139Z,96665.84
2022-11-01T05:08:20.257Z,96706.50
2022-11-01T05:10:53.205Z,96715.81
2022-11-01T05:13:23.469Z,96712.44
2022-11-01T05:16:06.550Z,96708.03
2022-11-01T05:18:41.612Z,96716.72
2022-11-01T05:21:09.807Z,96731.13
2022-11-01T05:23:37.997Z,96738.06
2022-11-01T05:26:06.745Z,96729.28
2022-11-01T05:28:36.184Z,96727.09
2022-11-01T05:31:04.329Z,96703.44
2022-11-01T05:33:32.547Z,96685.81
2022-11-01T05:36:02.562Z,96657.13
2022-11-01T05:38:31.010Z,96695.44
2022-11-01T05:40:59.301Z,96674.94
2022-11-01T05:43:30.013Z,96681.38
2022-11-01T05:45:59.559Z,96695.78
2022-11-01T05:48:27.769Z,96704.41
2022-11-01T05:50:56.034Z,96705.53
2022-11-01T05:53:24.172Z,96701.34
2022-11-01T05:55:55.157Z,96711.97
2022-11-01T05:58:27.896Z,96713.56
2022-11-01T06:01:00.823Z,96720.53
2022-11-01T06:03:29.646Z,96716.09
2022-11-01T06:05:58.052Z,96716.34
2022-11-01T06:08:27.093Z,96729.75
2022-11-01T06:11:02.627Z,96726.38
2022-11-01T06:13:31.181Z,96724.44
2022-11-01T06:16:02.025Z,96733.22
2022-11-01T06:18:31.025Z,96730.94
2022-11-01T06:20:59.940Z,96731.94
2022-11-01T06:23:28.284Z,96728.16
2022-11-01T06:26:02.408Z,96725.25
2022-11-01T06:28:30.596Z,96735.13
2022-11-01T06:31:03.203Z,96731.63
2022-11-01T06:33:31.599Z,96739.59
2022-11-01T06:35:59.697Z,96741.50
2022-11-01T06:38:27.799Z,96742.09
2022-11-01T06:40:56.004Z,96740.78
2022-11-01T06:43:24.127Z,96753.19
2022-11-01T06:45:52.233Z,96753.38
2022-11-01T06:48:21.689Z,96765.50
2022-11-01T06:50:49.900Z,96763.13
2022-11-01T06:53:18.025Z,96765.69
2022-11-01T06:55:46.169Z,96772.13
2022-11-01T06:58:14.369Z,96774.16
2022-11-01T07:00:42.550Z,96788.22
2022-11-01T07:03:14.247Z,96797.41
2022-11-01T07:05:44.390Z,96806.34
2022-11-01T07:08:14.249Z,96804.19
2022-11-01T07:10:44.681Z,96806.13
2022-11-01T07:13:14.817Z,96805.00
2022-11-01T07:15:42.896Z,96805.78
2022-11-01T07:18:11.638Z,96809.72
2022-11-01T07:20:43.377Z,96806.84
2022-11-01T07:23:16.186Z,96808.13
2022-11-01T07:25:52.011Z,96805.53
2022-11-01T07:28:20.521Z,96812.16
2022-11-01T07:30:49.339Z,96806.91
2022-11-01T07:33:18.329Z,96817.63
2022-11-01T07:35:47.730Z,96819.25
2022-11-01T07:38:17.679Z,96824.06
2022-11-01T07:40:49.461Z,96834.69
2022-11-01T07:43:18.811Z,96836.31
2022-11-01T07:45:47.592Z,96842.19
2022-11-01T07:48:19.550Z,96848.88
2022-11-01T07:50:47.923Z,96857.09
2022-11-01T07:53:19.484Z,96848.09
2022-11-01T07:55:47.818Z,96851.28
2022-11-01T07:58:20.238Z,96852.91
2022-11-01T08:00:48.976Z,96839.53
2022-11-01T08:03:19.343Z,96842.78
2022-11-01T08:05:49.015Z,96838.81
2022-11-01T08:08:18.825Z,96848.25
2022-11-01T08:10:47.619Z,96852.34
2022-11-01T08:13:19.016Z,96862.28
2022-11-01T08:15:48.741Z,96862.28
2022-11-01T08:18:17.438Z,96866.78
2022-11-01T08:20:45.995Z,96865.47
2022-11-01T08:23:14.276Z,96873.28
2022-11-01T08:25:43.775Z,96877.31
2022-11-01T08:28:14.865Z,96875.94
2022-11-01T08:30:45.088Z,96877.59
2022-11-01T08:33:13.600Z,96875.16
2022-11-01T08:35:45.868Z,96884.06
2022-11-01T08:38:17.308Z,96886.13
2022-11-01T08:40:46.740Z,96882.91
2022-11-01T08:43:14.949Z,96878.38
2022-11-01T08:45:43.008Z,96871.63
2022-11-01T08:48:11.565Z,96873.88
2022-11-01T08:50:40.515Z,96875.25
2022-11-01T08:53:10.363Z,96880.16
2022-11-01T08:55:39.413Z,96881.66
2022-11-01T08:58:09.479Z,96883.94
2022-11-01T09:00:37.648Z,96883.44
2022-11-01T09:03:06.321Z,96889.69
2022-11-01T09:05:34.750Z,96889.44
2022-11-01T09:08:03.559Z,96888.78
2022-11-01T09:10:32.274Z,96886.78
2022-11-01T09:13:02.270Z,96894.84
2022-11-01T09:15:32.819Z,96887.16
2022-11-01T09:18:06.070Z,96888.56
2022-11-01T09:20:34.155Z,96886.28
2022-11-01T09:23:02.562Z,96891.38
2022-11-01T09:25:31.015Z,96890.41
2022-11-01T09:27:59.330Z,96896.09
2022-11-01T09:30:28.654Z,96904.59
2022-11-01T09:32:58.234Z,96899.81
2022-11-01T09:35:26.359Z,96899.34
2022-11-01T09:37:59.205Z,96898.19
2022-11-01T09:40:28.792Z,96898.78
2022-11-01T09:43:01.532Z,96892.63
2022-11-01T09:45:34.254Z,96892.31
2022-11-01T09:48:06.595Z,96889.28
2022-11-01T09:50:38.999Z,96899.63
2022-11-01T09:53:17.386Z,96906.34
2022-11-01T09:55:52.428Z,96901.75
2022-11-01T09:58:35.075Z,96906.88
2022-11-01T10:01:25.760Z,96902.19
2022-11-01T10:04:16.588Z,96905.34
2022-11-01T10:06:52.956Z,96911.97
2022-11-01T10:09:34.086Z,96905.91
2022-11-01T10:12:18.857Z,96915.25
2022-11-01T10:15:10.257Z,96920.94
2022-11-01T10:18:02.382Z,96911.44
2022-11-01T10:20:39.035Z,96907.47
2022-11-01T10:23:07.462Z,96899.09
2022-11-01T10:25:40.358Z,96910.00
2022-11-01T10:28:17.006Z,96904.19
2022-11-01T10:30:50.963Z,96903.69
2022-11-01T10:33:30.313Z,96906.53
2022-11-01T10:36:03.644Z,96911.09
2022-11-01T10:38:59.543Z,96912.50
2022-11-01T10:41:36.268Z,96897.88
2022-11-01T10:44:13.849Z,96901.03
2022-11-01T10:46:47.265Z,96901.13
2022-11-01T10:49:35.111Z,96897.97
2022-11-01T10:52:21.300Z,96909.94
2022-11-01T10:54:53.127Z,96909.63
2022-11-01T10:57:35.814Z,96907.72
2022-11-01T11:00:11.831Z,96912.84
2022-11-01T11:02:43.882Z,96924.00
2022-11-01T11:05:14.451Z,96922.88
2022-11-01T11:07:45.181Z,96918.50
2022-11-01T11:10:23.953Z,96920.41
2022-11-01T11:12:57.279Z,96919.94
2022-11-01T11:15:39.241Z,96924.34
2022-11-01T11:18:18.470Z,96927.50
2022-11-01T11:20:53.390Z,96926.81
2022-11-01T11:23:23.769Z,96923.34
2022-11-01T11:25:52.242Z,96932.47
2022-11-01T11:28:30.464Z,96928.69
2022-11-01T11:31:13.326Z,96932.63
2022-11-01T11:33:48.852Z,96928.06
2022-11-01T11:36:18.429Z,96941.91
2022-11-01T11:38:51.907Z,96929.19
2022-11-01T11:41:32.927Z,96924.53
2022-11-01T11:44:02.843Z,96926.16
2022-11-01T11:46:31.098Z,96930.56
2022-11-01T11:49:06.924Z,96932.50
2022-11-01T11:51:38.156Z,96923.94
2022-11-01T11:54:25.893Z,96933.22
2022-11-01T11:57:11.608Z,96925.25
2022-11-01T11:59:41.484Z,96923.75
2022-11-01T12:02:20.765Z,96925.97
2022-11-01T12:04:55.692Z,96923.88
2022-11-01T12:07:31.616Z,96929.75
2022-11-01T12:10:04.586Z,96929.88
2022-11-01T12:12:35.018Z,96934.34
2022-11-01T12:15:04.336Z,96932.94
2022-11-01T12:17:36.585Z,96923.72
2022-11-01T12:20:17.190Z,96931.97
2022-11-01T12:22:51.899Z,96936.31
2022-11-01T12:25:25.304Z,96920.25
2022-11-01T12:27:59.594Z,96931.91
2022-11-01T12:30:32.142Z,96935.63
2022-11-01T12:33:03.737Z,96939.28
2022-11-01T12:35:36.206Z,96929.19
2022-11-01T12:38:39.380Z,96931.69
2022-11-01T12:41:31.080Z,96930.69
2022-11-01T12:44:33.618Z,96936.16
2022-11-01T12:47:08.201Z,96931.06
2022-11-01T12:49:46.740Z,96927.69
2022-11-01T12:52:23.427Z,96930.16
2022-11-01T12:55:04.050Z,96936.31
2022-11-01T12:57:36.007Z,96930.75
2022-11-01T13:00:05.782Z,96935.06
2022-11-01T13:03:04.590Z,96928.91
2022-11-01T13:05:50.244Z,96928.34
2022-11-01T13:08:28.873Z,96934.41
2022-11-01T13:11:03.952Z,96926.75
2022-11-01T13:13:42.822Z,96921.16
2022-11-01T13:16:17.938Z,96924.00
2022-11-01T13:18:55.476Z,96915.41
2022-11-01T13:21:37.633Z,96930.38
2022-11-01T13:24:17.235Z,96926.13
2022-11-01T13:26:52.345Z,96933.28
2022-11-01T13:29:41.134Z,96929.69
2022-11-01T13:32:20.896Z,96935.94
2022-11-01T13:35:16.483Z,96942.09
2022-11-01T13:37:53.417Z,96932.25
2022-11-01T13:40:28.596Z,96928.94
2022-11-01T13:43:02.829Z,96935.31
2022-11-01T13:46:29.104Z,96931.97
2022-11-01T13:49:44.833Z,96929.28
2022-11-01T13:52:20.421Z,96922.44
2022-11-01T13:54:56.722Z,96928.97
2022-11-01T13:57:27.652Z,96923.63
2022-11-01T13:59:59.207Z,96933.06
2022-11-01T14:02:57.755Z,96932.38
2022-11-01T14:05:38.633Z,96917.00
2022-11-01T14:08:28.847Z,96924.63
2022-11-01T14:10:57.575Z,96918.31
2022-11-01T14:13:37.136Z,96922.75
2022-11-01T14:16:27.316Z,96917.44
2022-11-01T14:19:21.178Z,96921.16
2022-11-01T14:21:54.440Z,96924.00
2022-11-01T14:24:32.156Z,96928.59
2022-11-01T14:27:35.928Z,96934.94
2022-11-01T14:30:15.534Z,96938.84
2022-11-01T14:32:51.452Z,96933.59
2022-11-01T14:35:28.836Z,96947.47
2022-11-01T14:38:02.715Z,96953.34
2022-11-01T14:40:35.038Z,96946.91
2022-11-01T14:43:12.600Z,96949.25
2022-11-01T14:45:46.164Z,96959.59
2022-11-01T14:48:22.854Z,96954.34
2022-11-01T14:51:00.788Z,96955.47
2022-11-01T14:53:33.983Z,96956.00
2022-11-01T14:56:16.039Z,96965.13
2022-11-01T14:58:44.781Z,96965.63
2022-11-01T15:01:18.128Z,96962.88
2022-11-01T15:03:55.652Z,96967.16
2022-11-01T15:06:28.011Z,96966.75
2022-11-01T15:08:58.964Z,96953.22
2022-11-01T15:11:29.937Z,96949.97
2022-11-01T15:14:06.720Z,96964.66
2022-11-01T15:16:36.418Z,96961.34
2022-11-01T15:19:08.485Z,96952.88
2022-11-01T15:21:47.115Z,96952.31
2022-11-01T15:24:25.147Z,96957.72
2022-11-01T15:26:54.196Z,96955.47
2022-11-01T15:29:25.511Z,96947.47
2022-11-01T15:31:58.468Z,96953.28
2022-11-01T15:34:29.344Z,96954.75
2022-11-01T15:36:59.500Z,96959.50
2022-11-01T15:39:30.170Z,96965.63
2022-11-01T15:41:58.542Z,96964.81
2022-11-01T15:44:29.768Z,96966.09
2022-11-01T15:47:00.909Z,96961.25
2022-11-01T15:49:34.903Z,96967.31
2022-11-01T15:52:08.676Z,96964.66
2022-11-01T15:54:45.214Z,96972.81
2022-11-01T15:57:21.959Z,96975.34
2022-11-01T16:00:00.866Z,96973.44
2022-11-01T16:02:37.396Z,96973.03
2022-11-01T16:05:06.989Z,96975.63
2022-11-01T16:07:36.730Z,96978.75
2022-11-01T16:10:09.134Z,96983.69
2022-11-01T16:12:39.797Z,96983.69
2022-11-01T16:15:22.260Z,96983.38
2022-11-01T16:17:55.743Z,96985.53
2022-11-01T16:20:32.177Z,96990.03
2022-11-01T16:23:02.662Z,96995.13
2022-11-01T16:25:33.701Z,96998.59
2022-11-01T16:28:07.228Z,96996.50
2022-11-01T16:30:46.544Z,96997.13
2022-11-01T16:33:21.283Z,96995.41
2022-11-01T16:35:51.510Z,97004.09
2022-11-01T16:38:37.364Z,97009.31
2022-11-01T16:41:14.986Z,96999.50
2022-11-01T16:43:43.444Z,96996.72
2022-11-01T16:46:11.629Z,97010.28
2022-11-01T16:48:55.870Z,96997.22
2022-11-01T16:51:28.443Z,97008.56
2022-11-01T16:54:00.152Z,97018.84
2022-11-01T16:56:36.941Z,97020.75
2022-11-01T16:59:10.001Z,97026.59
2022-11-01T17:01:39.418Z,97026.84
2022-11-01T17:04:08.890Z,97023.72
2022-11-01T17:06:39.155Z,97038.75
2022-11-01T17:09:13.721Z,97027.75
2022-11-01T17:11:51.531Z,97043.84
2022-11-01T17:14:23.152Z,97046.50
2022-11-01T17:16:53.561Z,97042.34
2022-11-01T17:19:26.210Z,97050.44
2022-11-01T17:21:55.872Z,97044.09
2022-11-01T17:24:27.124Z,97057.16
2022-11-01T17:27:00.535Z,97057.81
2022-11-01T17:29:29.179Z,97062.34
2022-11-01T17:31:57.252Z,97059.53
2022-11-01T17:34:26.639Z,97057.59
2022-11-01T17:36:55.717Z,97070.66
2022-11-01T17:39:27.509Z,97062.09
2022-11-01T17:41:58.158Z,97065.09
2022-11-01T17:44:26.510Z,97065.31
2022-11-01T17:46:54.822Z,97069.03
2022-11-01T17:49:24.512Z,97072.94
2022-11-01T17:51:54.939Z,97069.00
2022-11-01T17:56:58.171Z,97077.53
2022-11-01T17:59:26.492Z,97083.56
2022-11-01T18:01:54.889Z,97084.72
2022-11-01T18:04:23.466Z,97074.53
2022-11-01T18:06:51.975Z,97075.03
2022-11-01T18:09:24.619Z,97075.94
2022-11-01T18:12:06.010Z,97082.50
2022-11-01T18:17:39.190Z,97086.66
2022-11-01T18:20:20.684Z,97093.47
2022-11-01T18:22:55.584Z,97090.44
2022-11-01T18:25:32.586Z,97090.91
2022-11-01T18:28:04.035Z,97086.50
2022-11-01T18:30:32.373Z,97092.75
2022-11-01T18:33:06.094Z,97094.44
2022-11-01T18:35:40.008Z,97093.47
2022-11-01T18:38:17.897Z,97096.25
2022-11-01T18:41:00.105Z,97089.69
2022-11-01T18:43:32.993Z,97098.09
2022-11-01T18:46:25.181Z,97098.69
2022-11-01T18:48:59.917Z,97093.34
2022-11-01T18:51:31.452Z,97090.34
2022-11-01T18:54:24.102Z,97094.88
2022-11-01T18:56:55.263Z,97090.34
2022-11-01T18:59:34.940Z,97087.56
2022-11-01T19:02:13.755Z,97091.81
2022-11-01T19:04:43.823Z,97095.31
2022-11-01T19:07:15.303Z,97096.81
2022-11-01T19:09:53.137Z,97088.72
2022-11-01T19:12:27.980Z,97083.06
2022-11-01T19:15:15.988Z,97083.28
2022-11-01T19:17:47.816Z,97080.88
2022-11-01T19:20:23.655Z,97087.78
2022-11-01T19:22:55.429Z,97086.50
2022-11-01T19:25:25.726Z,97078.13
2022-11-01T19:27:57.120Z,97084.00
2022-11-01T19:30:29.826Z,97079.19
2022-11-01T19:33:03.378Z,97084.59
2022-11-01T19:35:31.659Z,97094.84
2022-11-01T19:38:00.860Z,97085.72
2022-11-01T19:40:33.560Z,97087.34
2022-11-01T19:43:13.456Z,97088.22
2022-11-01T19:45:47.867Z,97092.25
2022-11-01T19:48:20.814Z,97091.56
2022-11-01T19:50:49.066Z,97092.88
2022-11-01T19:53:31.008Z,97089.22
2022-11-01T19:56:04.291Z,97094.34
2022-11-01T19:58:43.619Z,97092.66
2022-11-01T20:01:40.710Z,97104.38
2022-11-01T20:04:26.981Z,97097.53
2022-11-01T20:07:00.947Z,97094.72
2022-11-01T20:09:31.450Z,97097.16
2022-11-01T20:11:59.590Z,97103.19
2022-11-01T20:14:27.735Z,97107.19
2022-11-01T20:16:57.460Z,97113.41
2022-11-01T20:19:25.670Z,97108.63
2022-11-01T20:21:53.814Z,97114.81
2022-11-01T20:24:22.125Z,97096.06
2022-11-01T20:26:50.670Z,97108.22
2022-11-01T20:29:18.964Z,97109.97
2022-11-01T20:31:47.738Z,97116.94
2022-11-01T20:34:17.282Z,97118.13
2022-11-01T20:37:02.269Z,97112.72
2022-11-01T20:39:33.741Z,97123.78
2022-11-01T20:42:01.937Z,97117.41
2022-11-01T20:44:30.272Z,97118.38
2022-11-01T20:46:58.409Z,97123.31
2022-11-01T20:49:28.376Z,97127.03
2022-11-01T20:52:03.822Z,97125.38
2022-11-01T20:54:44.781Z,97128.03
2022-11-01T20:57:27.028Z,97116.94
2022-11-01T20:59:55.982Z,97121.84
2022-11-01T21:02:24.673Z,97123.91
2022-11-01T21:05:00.994Z,97118.63
2022-11-01T21:07:31.340Z,97120.44
2022-11-01T21:09:59.631Z,97122.53
2022-11-01T21:12:44.769Z,97123.41
2022-11-01T21:15:37.649Z,97127.19
2022-11-01T21:18:45.875Z,97129.53
2022-11-01T21:21:35.412Z,97134.47
2022-11-01T21:24:29.493Z,97141.25
2022-11-01T21:30:15.936Z,97151.16
2022-11-01T21:32:46.082Z,97154.66
2022-11-01T21:35:41.001Z,97148.59
2022-11-01T21:38:38.414Z,97157.28
2022-11-01T21:41:26.918Z,97154.88
2022-11-01T21:43:55.732Z,97154.38
2022-11-01T21:46:26.751Z,97149.91
2022-11-01T21:49:00.553Z,97161.47
2022-11-01T21:51:32.666Z,97154.41
2022-11-01T21:54:04.440Z,97160.94
2022-11-01T21:56:32.949Z,97162.59
2022-11-01T21:59:01.955Z,97159.22
2022-11-01T22:01:36.566Z,97164.09
2022-11-01T22:04:05.101Z,97156.97
2022-11-01T22:06:33.224Z,97167.78
2022-11-01T22:09:03.318Z,97165.97
2022-11-01T22:11:32.800Z,97162.56
2022-11-01T22:14:01.029Z,97163.38
2022-11-01T22:16:29.234Z,97164.81
2022-11-01T22:18:57.459Z,97161.16
2022-11-01T22:21:25.866Z,97163.63
2022-11-01T22:23:54.252Z,97164.25
2022-11-01T22:26:24.550Z,97167.09
2022-11-01T22:28:53.166Z,97171.56
2022-11-01T22:31:21.978Z,97167.31
2022-11-01T22:33:53.281Z,97172.59
2022-11-01T22:36:25.277Z,97176.84
2022-11-01T22:38:57.720Z,97172.22
2022-11-01T22:41:33.105Z,97168.97
2022-11-01T22:44:06.160Z,97177.50
2022-11-01T22:46:45.298Z,97177.09
2022-11-01T22:49:20.195Z,97175.06
2022-11-01T22:51:52.056Z,97178.34
2022-11-01T22:54:33.937Z,97175.50
2022-11-01T22:57:15.353Z,97182.22
2022-11-01T22:59:48.399Z,97182.41
2022-11-01T23:02:28.799Z,97186.06
2022-11-01T23:05:21.360Z,97183.22
2022-11-01T23:07:51.573Z,97177.97
2022-11-01T23:10:30.247Z,97177.34
2022-11-01T23:13:34.459Z,97172.88
2022-11-01T23:16:04.880Z,97179.19
2022-11-01T23:18:37.450Z,97178.56
2022-11-01T23:21:08.438Z,97176.72
2022-11-01T23:23:37.637Z,97176.31
2022-11-01T23:26:06.258Z,97182.63
2022-11-01T23:28:37.315Z,97179.97
2022-11-01T23:31:06.602Z,97183.63
2022-11-01T23:33:39.886Z,97186.88
2022-11-01T23:36:17.066Z,97189.91
2022-11-01T23:38:48.548Z,97189.13
2022-11-01T23:41:23.556Z,97198.47
2022-11-01T23:43:55.979Z,97183.66
2022-11-01T23:46:25.400Z,97187.50
2022-11-01T23:49:00.585Z,97190.34
2022-11-01T23:51:31.125Z,97195.84
2022-11-01T23:53:59.855Z,97189.34
2022-11-01T23:56:28.092Z,97196.03
2022-11-01T23:59:04.921Z,97188.50
